createdAt,value
2018-07-09T00:01:55.061Z,59.20
2018-07-09T00:04:27.070Z,57.40
2018-07-09T00:06:59.400Z,60.80
2018-07-09T00:09:32.281Z,59.40
2018-07-09T00:12:04.296Z,59.20
2018-07-09T00:14:36.557Z,62.00
2018-07-09T00:17:08.799Z,61.20
2018-07-09T00:19:41.619Z,60.60
2018-07-09T00:22:13.605Z,61.40
2018-07-09T00:24:46.684Z,63.00
2018-07-09T00:27:18.779Z,62.40
2018-07-09T00:29:51.763Z,60.60
2018-07-09T00:32:24.137Z,60.20
2018-07-09T00:34:56.653Z,62.20
2018-07-09T00:37:29.232Z,58.80
2018-07-09T00:40:01.685Z,59.20
2018-07-09T00:42:35.000Z,63.80
2018-07-09T00:45:07.105Z,61.20
2018-07-09T00:47:39.555Z,61.20
2018-07-09T00:50:11.992Z,64.80
2018-07-09T00:52:44.627Z,60.80
2018-07-09T00:55:17.285Z,62.20
2018-07-09T00:57:49.405Z,62.20
2018-07-09T01:00:21.260Z,63.00
2018-07-09T01:02:53.662Z,64.80
2018-07-09T01:05:26.069Z,64.60
2018-07-09T01:07:58.598Z,67.00
2018-07-09T01:10:31.252Z,65.20
2018-07-09T01:13:03.458Z,64.60
2018-07-09T01:15:35.915Z,62.40
2018-07-09T01:18:07.991Z,64.60
2018-07-09T01:20:40.822Z,70.00
2018-07-09T01:23:13.079Z,65.80
2018-07-09T01:25:46.174Z,70.00
2018-07-09T01:28:18.896Z,67.20
2018-07-09T01:30:51.192Z,65.00
2018-07-09T01:33:23.239Z,66.60
2018-07-09T01:35:55.954Z,66.80
2018-07-09T01:38:28.389Z,66.00
2018-07-09T01:41:00.657Z,67.60
2018-07-09T01:43:33.161Z,63.80
2018-07-09T01:46:05.551Z,68.00
2018-07-09T01:48:38.789Z,65.20
2018-07-09T01:51:11.198Z,61.40
2018-07-09T01:53:43.404Z,67.20
2018-07-09T01:56:15.909Z,67.80
2018-07-09T01:58:47.958Z,66.80
2018-07-09T02:01:20.067Z,64.80
2018-07-09T02:03:51.976Z,68.00
2018-07-09T02:06:24.188Z,68.80
2018-07-09T02:08:56.046Z,69.80
2018-07-09T02:11:28.107Z,68.00
2018-07-09T02:14:00.556Z,67.20
2018-07-09T02:16:33.108Z,66.40
2018-07-09T02:19:05.559Z,67.00
2018-07-09T02:21:38.452Z,65.60
2018-07-09T02:24:10.437Z,66.60
2018-07-09T02:26:42.764Z,66.40
2018-07-09T02:29:14.868Z,69.60
2018-07-09T02:31:46.884Z,70.80
2018-07-09T02:34:19.380Z,62.40
2018-07-09T02:36:52.279Z,67.20
2018-07-09T02:39:24.197Z,70.20
2018-07-09T02:41:56.446Z,65.00
2018-07-09T02:44:28.771Z,68.20
2018-07-09T02:47:00.889Z,68.00
2018-07-09T02:49:33.213Z,67.80
2018-07-09T02:52:05.727Z,65.60
2018-07-09T02:54:38.126Z,68.00
2018-07-09T02:57:10.170Z,67.80
2018-07-09T02:59:42.493Z,68.20
2018-07-09T03:02:15.117Z,70.60
2018-07-09T03:04:47.228Z,69.40
2018-07-09T03:07:19.748Z,70.00
2018-07-09T03:09:51.927Z,64.60
2018-07-09T03:12:24.678Z,68.40
2018-07-09T03:14:57.196Z,67.20
2018-07-09T03:17:29.584Z,65.00
2018-07-09T03:20:01.402Z,68.40
2018-07-09T03:22:33.461Z,68.20
2018-07-09T03:25:05.377Z,66.60
2018-07-09T03:27:37.901Z,68.60
2018-07-09T03:30:10.634Z,65.80
2018-07-09T03:32:43.294Z,67.20
2018-07-09T03:35:15.712Z,67.60
2018-07-09T03:37:48.547Z,66.00
2018-07-09T03:40:22.126Z,68.60
2018-07-09T03:42:55.081Z,67.00
2018-07-09T03:45:27.365Z,70.00
2018-07-09T03:47:59.475Z,70.00
2018-07-09T03:50:31.579Z,73.80
2018-07-09T03:53:03.926Z,75.40
2018-07-09T03:55:36.123Z,66.00
2018-07-09T03:58:08.531Z,70.40
2018-07-09T04:00:41.280Z,71.60
2018-07-09T04:03:13.457Z,73.60
2018-07-09T04:05:45.614Z,75.20
2018-07-09T04:08:18.281Z,77.00
2018-07-09T04:10:50.494Z,78.00
2018-07-09T04:13:23.127Z,73.80
2018-07-09T04:15:55.674Z,75.00
2018-07-09T04:18:28.374Z,71.60
2018-07-09T04:21:00.854Z,74.00
2018-07-09T04:23:33.402Z,70.60
2018-07-09T04:26:05.649Z,64.20
2018-07-09T04:28:38.346Z,66.40
2018-07-09T04:31:10.880Z,64.80
2018-07-09T04:33:43.158Z,64.60
2018-07-09T04:36:15.298Z,66.00
2018-07-09T04:38:48.463Z,66.60
2018-07-09T04:41:20.509Z,65.80
2018-07-09T04:43:52.996Z,64.80
2018-07-09T04:46:25.377Z,68.20
2018-07-09T04:48:57.977Z,68.40
2018-07-09T04:51:30.233Z,66.80
2018-07-09T04:54:02.645Z,64.60
2018-07-09T04:56:35.034Z,67.60
2018-07-09T04:59:07.055Z,66.00
2018-07-09T05:01:40.071Z,68.60
2018-07-09T05:04:12.611Z,66.60
2018-07-09T05:06:45.187Z,67.20
2018-07-09T05:09:17.586Z,66.80
2018-07-09T05:11:50.014Z,67.60
2018-07-09T05:14:23.636Z,65.40
2018-07-09T05:16:56.165Z,66.80
2018-07-09T05:19:28.827Z,66.80
2018-07-09T05:22:00.893Z,68.20
2018-07-09T05:24:33.195Z,66.40
2018-07-09T05:27:04.893Z,70.00
2018-07-09T05:29:37.434Z,68.20
2018-07-09T05:32:09.534Z,66.40
2018-07-09T05:34:42.039Z,68.20
2018-07-09T05:37:14.109Z,67.20
2018-07-09T05:39:47.043Z,70.00
2018-07-09T05:42:19.715Z,70.20
2018-07-09T05:44:52.267Z,67.20
2018-07-09T05:47:26.250Z,67.40
2018-07-09T05:50:00.141Z,65.20
2018-07-09T05:52:33.112Z,63.60
2018-07-09T05:55:05.556Z,70.60
2018-07-09T05:57:38.576Z,68.60
2018-07-09T06:00:11.284Z,71.80
2018-07-09T06:02:43.815Z,67.00
2018-07-09T06:05:15.920Z,68.60
2018-07-09T06:07:48.032Z,61.40
2018-07-09T06:10:20.571Z,63.60
2018-07-09T06:12:52.810Z,69.60
2018-07-09T06:15:25.456Z,65.40
2018-07-09T06:17:57.776Z,68.60
2018-07-09T06:20:30.295Z,69.80
2018-07-09T06:23:02.260Z,69.40
2018-07-09T06:25:34.329Z,68.60
2018-07-09T06:28:06.160Z,70.00
2018-07-09T06:30:38.361Z,67.00
2018-07-09T06:33:10.308Z,67.60
2018-07-09T06:35:42.076Z,69.60
2018-07-09T06:38:14.066Z,68.20
2018-07-09T06:40:46.110Z,66.00
2018-07-09T06:43:18.408Z,66.00
2018-07-09T06:45:51.517Z,71.20
2018-07-09T06:48:23.948Z,69.60
2018-07-09T06:50:56.449Z,66.60
2018-07-09T06:53:28.763Z,69.00
2018-07-09T06:56:01.704Z,65.00
2018-07-09T06:58:33.787Z,69.40
2018-07-09T07:01:06.963Z,71.20
2018-07-09T07:03:39.613Z,70.20
2018-07-09T07:06:12.218Z,70.00
2018-07-09T07:08:44.484Z,69.00
2018-07-09T07:11:17.303Z,63.80
2018-07-09T07:13:49.575Z,69.20
2018-07-09T07:16:22.182Z,69.60
2018-07-09T07:18:54.534Z,70.60
2018-07-09T07:21:26.975Z,70.20
2018-07-09T07:23:59.008Z,69.60
2018-07-09T07:26:31.278Z,69.00
2018-07-09T07:29:03.479Z,67.40
2018-07-09T07:31:36.290Z,73.00
2018-07-09T07:34:08.474Z,71.20
2018-07-09T07:36:40.835Z,71.40
2018-07-09T07:39:12.839Z,68.00
2018-07-09T07:41:45.601Z,70.80
2018-07-09T07:44:17.727Z,68.80
2018-07-09T07:46:50.314Z,70.80
2018-07-09T07:49:22.422Z,66.80
2018-07-09T07:51:55.042Z,70.20
2018-07-09T07:54:27.473Z,66.40
2018-07-09T07:57:00.287Z,68.80
2018-07-09T07:59:32.139Z,71.60
2018-07-09T08:02:04.344Z,72.20
2018-07-09T08:04:36.302Z,72.60
2018-07-09T08:07:08.578Z,72.00
2018-07-09T08:09:40.898Z,72.40
2018-07-09T08:13:00.536Z,67.60
2018-07-09T08:14:45.622Z,67.60
2018-07-09T08:17:18.324Z,68.00
2018-07-09T08:19:50.511Z,68.40
2018-07-09T08:22:22.999Z,69.40
2018-07-09T08:24:55.408Z,69.40
2018-07-09T08:27:28.069Z,70.00
2018-07-09T08:30:00.251Z,69.20
2018-07-09T08:32:32.931Z,68.40
2018-07-09T08:35:05.149Z,69.20
2018-07-09T08:37:37.444Z,69.40
2018-07-09T08:40:10.010Z,71.60
2018-07-09T08:42:42.639Z,68.80
2018-07-09T08:45:14.760Z,64.80
2018-07-09T08:47:47.097Z,69.20
2018-07-09T08:50:19.213Z,68.40
2018-07-09T08:52:51.270Z,68.40
2018-07-09T08:55:23.841Z,65.40
2018-07-09T08:57:56.819Z,68.40
2018-07-09T09:00:30.283Z,69.80
2018-07-09T09:03:03.028Z,67.20
2018-07-09T09:05:35.815Z,67.20
2018-07-09T09:08:08.909Z,64.80
2018-07-09T09:10:42.527Z,66.20
2018-07-09T09:13:16.605Z,64.20
2018-07-09T09:15:49.344Z,64.40
2018-07-09T09:18:21.936Z,67.00
2018-07-09T09:20:55.366Z,64.80
2018-07-09T09:23:28.586Z,64.40
2018-07-09T09:26:01.418Z,65.00
2018-07-09T09:28:33.741Z,63.00
2018-07-09T09:31:06.312Z,62.00
2018-07-09T09:33:39.399Z,57.60
2018-07-09T09:36:11.805Z,64.00
2018-07-09T09:38:45.688Z,60.40
2018-07-09T09:41:18.204Z,66.20
2018-07-09T09:43:50.983Z,61.60
2018-07-09T09:46:23.490Z,60.40
2018-07-09T09:48:56.567Z,61.60
2018-07-09T09:51:29.176Z,62.80
2018-07-09T09:54:02.069Z,62.60
2018-07-09T09:56:34.495Z,63.60
2018-07-09T09:59:07.478Z,59.60
2018-07-09T10:01:39.773Z,64.20
2018-07-09T10:04:12.730Z,61.20
2018-07-09T10:06:44.716Z,61.40
2018-07-09T10:09:16.710Z,60.20
2018-07-09T10:11:49.245Z,60.80
2018-07-09T10:14:21.889Z,59.80
2018-07-09T10:16:55.081Z,58.80
2018-07-09T10:19:27.699Z,60.40
2018-07-09T10:21:59.941Z,59.20
2018-07-09T10:24:32.366Z,59.00
2018-07-09T10:27:04.846Z,59.80
2018-07-09T10:29:37.445Z,60.80
2018-07-09T10:32:09.623Z,59.20
2018-07-09T10:34:42.055Z,58.40
2018-07-09T10:37:14.658Z,59.80
2018-07-09T10:39:48.364Z,59.20
2018-07-09T10:42:23.185Z,61.00
2018-07-09T10:44:55.798Z,56.00
2018-07-09T10:47:28.439Z,57.80
2018-07-09T10:50:01.023Z,57.80
2018-07-09T10:52:33.732Z,56.20
2018-07-09T10:55:06.890Z,57.00
2018-07-09T10:57:38.809Z,52.60
2018-07-09T11:00:11.586Z,53.60
2018-07-09T11:02:43.821Z,54.60
2018-07-09T11:05:16.258Z,55.60
2018-07-09T11:07:48.630Z,52.40
2018-07-09T11:10:21.127Z,52.60
2018-07-09T11:12:53.722Z,49.40
2018-07-09T11:15:27.436Z,53.60
2018-07-09T11:17:59.904Z,54.40
2018-07-09T11:20:32.141Z,55.20
2018-07-09T11:23:05.005Z,51.60
2018-07-09T11:25:37.585Z,55.20
2018-07-09T11:28:09.985Z,52.60
2018-07-09T11:30:42.573Z,51.60
2018-07-09T11:33:18.382Z,54.80
2018-07-09T11:35:50.956Z,55.20
2018-07-09T11:38:22.859Z,54.80
2018-07-09T11:40:55.580Z,54.40
2018-07-09T11:43:28.087Z,53.40
2018-07-09T11:46:00.417Z,53.80
2018-07-09T11:48:32.563Z,55.00
2018-07-09T11:51:05.865Z,55.20
2018-07-09T11:56:28.254Z,53.60
2018-07-09T11:59:01.178Z,54.20
2018-07-09T12:01:33.721Z,54.20
2018-07-09T12:04:06.447Z,54.40
2018-07-09T12:06:39.335Z,50.20
2018-07-09T12:09:11.546Z,49.20
2018-07-09T12:11:44.078Z,53.40
2018-07-09T12:14:16.694Z,53.20
2018-07-09T12:16:49.108Z,51.60
2018-07-09T12:19:21.458Z,50.20
2018-07-09T12:21:54.605Z,49.00
2018-07-09T12:24:26.687Z,50.00
2018-07-09T12:26:58.970Z,47.80
2018-07-09T12:29:31.738Z,52.60
2018-07-09T12:32:03.716Z,51.60
2018-07-09T12:34:35.805Z,54.00
2018-07-09T12:37:08.209Z,49.20
2018-07-09T12:39:40.528Z,47.00
2018-07-09T12:42:13.304Z,51.60
2018-07-09T12:44:45.711Z,53.80
2018-07-09T12:47:18.355Z,52.60
2018-07-09T12:49:50.440Z,52.60
2018-07-09T12:52:22.656Z,52.40
2018-07-09T12:54:55.139Z,57.40
2018-07-09T12:57:27.580Z,52.40
2018-07-09T12:59:59.718Z,60.00
2018-07-09T13:02:31.566Z,55.60
2018-07-09T13:05:03.447Z,55.80
2018-07-09T13:07:36.589Z,59.00
2018-07-09T13:10:08.647Z,56.40
2018-07-09T13:12:41.082Z,55.60
2018-07-09T13:15:14.882Z,54.00
2018-07-09T13:17:47.980Z,61.40
2018-07-09T13:20:20.103Z,60.80
2018-07-09T13:22:52.760Z,58.60
2018-07-09T13:25:25.021Z,60.40
2018-07-09T13:27:57.600Z,58.80
2018-07-09T13:30:30.095Z,62.60
2018-07-09T13:33:02.801Z,60.00
2018-07-09T13:35:35.315Z,60.40
2018-07-09T13:38:07.735Z,61.80
2018-07-09T13:40:40.021Z,60.80
2018-07-09T13:43:12.130Z,55.40
2018-07-09T13:45:44.775Z,60.60
2018-07-09T13:48:16.960Z,60.60
2018-07-09T13:50:49.806Z,58.60
2018-07-09T13:53:22.365Z,61.20
2018-07-09T13:55:54.874Z,61.00
2018-07-09T13:58:28.047Z,62.80
2018-07-09T14:01:00.746Z,62.40
2018-07-09T14:03:33.158Z,60.80
2018-07-09T14:06:05.761Z,62.20
2018-07-09T14:08:38.012Z,63.20
2018-07-09T14:11:10.696Z,61.20
2018-07-09T14:13:42.591Z,64.40
2018-07-09T14:16:14.657Z,65.60
2018-07-09T14:18:47.321Z,62.20
2018-07-09T14:21:19.406Z,61.40
2018-07-09T14:23:52.043Z,56.60
2018-07-09T14:26:24.647Z,60.80
2018-07-09T14:28:57.215Z,62.60
2018-07-09T14:31:29.186Z,59.40
2018-07-09T14:34:01.611Z,56.00
2018-07-09T14:36:33.879Z,55.20
2018-07-09T14:39:07.072Z,58.40
2018-07-09T14:41:39.358Z,57.80
2018-07-09T14:44:11.448Z,54.40
2018-07-09T14:46:44.014Z,57.40
2018-07-09T14:49:16.069Z,59.20
2018-07-09T14:51:48.487Z,53.20
2018-07-09T14:54:20.706Z,60.20
2018-07-09T14:56:52.796Z,59.20
2018-07-09T14:59:25.011Z,56.40
2018-07-09T15:01:57.220Z,57.00
2018-07-09T15:04:29.972Z,56.80
2018-07-09T15:07:01.777Z,57.60
2018-07-09T15:09:33.802Z,57.60
2018-07-09T15:12:06.051Z,58.60
2018-07-09T15:14:38.294Z,55.60
2018-07-09T15:17:11.428Z,58.00
2018-07-09T15:19:44.477Z,57.80
2018-07-09T15:22:16.624Z,57.40
2018-07-09T15:24:48.928Z,56.80
2018-07-09T15:27:21.203Z,55.00
2018-07-09T15:29:54.156Z,54.60
2018-07-09T15:32:29.849Z,54.20
2018-07-09T15:35:02.417Z,57.40
2018-07-09T15:37:34.414Z,58.60
2018-07-09T15:40:06.845Z,56.20
2018-07-09T15:42:39.254Z,54.80
2018-07-09T15:45:11.502Z,53.20
2018-07-09T15:47:45.025Z,55.00
2018-07-09T15:50:17.134Z,51.40
2018-07-09T15:52:49.774Z,54.40
2018-07-09T15:55:21.879Z,54.80
2018-07-09T15:57:54.141Z,54.40
2018-07-09T16:00:26.729Z,54.00
2018-07-09T16:02:58.927Z,52.60
2018-07-09T16:05:31.356Z,52.00
2018-07-09T16:08:03.740Z,53.60
2018-07-09T16:10:36.385Z,53.80
2018-07-09T16:13:08.445Z,50.60
2018-07-09T16:15:41.338Z,52.80
2018-07-09T16:18:13.191Z,51.20
2018-07-09T16:20:45.618Z,55.40
2018-07-09T16:23:17.924Z,55.00
2018-07-09T16:25:50.279Z,52.60
2018-07-09T16:28:22.293Z,53.00
2018-07-09T16:30:54.567Z,53.40
2018-07-09T16:33:26.800Z,53.00
2018-07-09T16:35:59.329Z,50.20
2018-07-09T16:38:31.885Z,52.20
2018-07-09T16:41:04.819Z,50.40
2018-07-09T16:43:37.044Z,51.80
2018-07-09T16:46:09.256Z,50.60
2018-07-09T16:48:42.271Z,49.40
2018-07-09T16:51:14.558Z,46.20
2018-07-09T16:53:47.177Z,53.00
2018-07-09T16:56:19.417Z,52.40
2018-07-09T16:58:51.644Z,51.20
2018-07-09T17:01:24.360Z,52.40
2018-07-09T17:03:56.508Z,50.80
2018-07-09T17:06:28.862Z,50.60
2018-07-09T17:09:01.395Z,48.40
2018-07-09T17:11:33.885Z,48.00
2018-07-09T17:14:06.210Z,48.20
2018-07-09T17:16:38.897Z,54.00
2018-07-09T17:19:11.735Z,51.20
2018-07-09T17:21:44.047Z,51.60
2018-07-09T17:24:16.288Z,52.20
2018-07-09T17:26:48.631Z,53.60
2018-07-09T17:29:21.122Z,55.40
2018-07-09T17:31:53.762Z,56.00
2018-07-09T17:34:25.962Z,55.40
2018-07-09T17:36:58.550Z,51.40
2018-07-09T17:39:30.654Z,52.60
2018-07-09T17:42:03.166Z,51.40
2018-07-09T17:44:36.092Z,53.80
2018-07-09T17:47:08.604Z,49.40
2018-07-09T17:49:42.124Z,51.80
2018-07-09T17:52:14.392Z,56.80
2018-07-09T17:54:47.306Z,56.80
2018-07-09T17:57:19.811Z,55.00
2018-07-09T17:59:52.088Z,55.60
2018-07-09T18:02:24.569Z,56.00
2018-07-09T18:04:56.900Z,53.40
2018-07-09T18:07:30.351Z,54.20
2018-07-09T18:10:02.477Z,52.60
2018-07-09T18:12:34.508Z,55.60
2018-07-09T18:15:07.256Z,55.60
2018-07-09T18:17:39.704Z,56.60
2018-07-09T18:20:12.028Z,57.40
2018-07-09T18:22:44.361Z,55.00
2018-07-09T18:25:16.434Z,57.20
2018-07-09T18:27:49.307Z,55.80
2018-07-09T18:30:22.016Z,56.60
2018-07-09T18:32:54.661Z,56.00
2018-07-09T18:35:27.178Z,55.80
2018-07-09T18:37:59.646Z,55.20
2018-07-09T18:40:31.752Z,56.60
2018-07-09T18:43:04.806Z,59.00
2018-07-09T18:45:36.935Z,59.80
2018-07-09T18:48:09.382Z,59.00
2018-07-09T18:50:41.858Z,58.40
2018-07-09T18:53:13.902Z,59.60
2018-07-09T18:55:46.001Z,61.40
2018-07-09T18:58:18.763Z,58.40
2018-07-09T19:00:51.177Z,60.60
2018-07-09T19:03:23.465Z,60.20
2018-07-09T19:07:11.517Z,62.00
2018-07-09T19:09:45.056Z,62.60
2018-07-09T19:12:17.665Z,61.60
2018-07-09T19:14:50.393Z,59.20
2018-07-09T19:17:58.192Z,62.20
2018-07-09T19:20:39.647Z,62.00
2018-07-09T19:23:10.074Z,61.80
2018-07-09T19:25:39.930Z,61.60
2018-07-09T19:28:09.344Z,62.00
2018-07-09T19:30:39.161Z,60.80
2018-07-09T19:33:08.669Z,63.00
2018-07-09T19:35:38.663Z,64.20
2018-07-09T19:38:07.921Z,62.80
2018-07-09T19:40:37.415Z,62.60
2018-07-09T19:43:06.931Z,62.80
2018-07-09T19:45:36.347Z,63.20
2018-07-09T19:48:06.126Z,63.00
2018-07-09T19:50:35.712Z,64.40
2018-07-09T19:53:04.999Z,63.40
2018-07-09T19:55:34.395Z,61.40
2018-07-09T19:58:04.153Z,62.00
2018-07-09T20:00:33.852Z,63.00
2018-07-09T20:03:02.949Z,59.00
2018-07-09T20:05:32.989Z,62.60
2018-07-09T20:08:02.522Z,60.80
2018-07-09T20:10:36.704Z,64.60
2018-07-09T20:13:11.128Z,63.80
2018-07-09T20:15:44.929Z,64.00
2018-07-09T20:18:14.738Z,65.40
2018-07-09T20:20:43.853Z,62.60
2018-07-09T20:23:13.162Z,65.00
2018-07-09T20:25:42.712Z,64.60
2018-07-09T20:28:12.506Z,66.40
2018-07-09T20:30:42.372Z,64.00
2018-07-09T20:33:11.714Z,65.20
2018-07-09T20:35:41.152Z,66.40
2018-07-09T20:38:11.254Z,65.00
2018-07-09T20:40:40.958Z,65.80
2018-07-09T20:43:09.965Z,67.20
2018-07-09T20:45:39.114Z,68.00
2018-07-09T20:48:08.475Z,67.20
2018-07-09T20:50:37.906Z,63.20
2018-07-09T20:53:07.355Z,66.40
2018-07-09T20:55:36.664Z,65.20
2018-07-09T20:58:05.566Z,66.40
2018-07-09T21:00:34.961Z,64.80
2018-07-09T21:03:04.788Z,66.20
2018-07-09T21:05:34.382Z,63.60
2018-07-09T21:08:03.794Z,65.40
2018-07-09T21:10:33.604Z,66.00
2018-07-09T21:13:03.441Z,63.20
2018-07-09T21:15:33.089Z,64.00
2018-07-09T21:18:02.179Z,65.60
2018-07-09T21:20:31.495Z,61.80
2018-07-09T21:23:00.663Z,64.20
2018-07-09T21:25:30.147Z,65.80
2018-07-09T21:27:59.130Z,63.20
2018-07-09T21:30:28.548Z,64.20
2018-07-09T21:32:57.940Z,63.20
2018-07-09T21:35:26.906Z,64.80
2018-07-09T21:37:56.835Z,59.20
2018-07-09T21:40:26.422Z,61.40
2018-07-09T21:42:56.054Z,62.20
2018-07-09T21:45:25.601Z,59.80
2018-07-09T21:47:59.211Z,62.00
2018-07-09T21:50:24.630Z,59.20
2018-07-09T21:52:54.032Z,57.40
2018-07-09T21:55:23.069Z,56.80
2018-07-09T21:57:52.813Z,56.20
2018-07-09T22:00:22.445Z,56.40
2018-07-09T22:02:52.386Z,56.20
2018-07-09T22:05:22.071Z,56.80
2018-07-09T22:07:51.130Z,57.00
2018-07-09T22:10:20.748Z,57.80
2018-07-09T22:12:50.097Z,54.80
2018-07-09T22:15:19.112Z,55.20
2018-07-09T22:17:48.488Z,55.80
2018-07-09T22:20:17.903Z,57.60
2018-07-09T22:22:47.035Z,56.00
2018-07-09T22:25:16.172Z,53.40
2018-07-09T22:27:45.365Z,55.60
2018-07-09T22:30:14.783Z,54.00
2018-07-09T22:32:47.326Z,55.60
2018-07-09T22:35:19.880Z,52.20
2018-07-09T22:37:52.404Z,55.40
2018-07-09T22:40:24.840Z,56.60
2018-07-09T22:42:58.817Z,55.00
2018-07-09T22:45:31.258Z,52.40
2018-07-09T22:48:03.732Z,53.40
2018-07-09T22:50:36.476Z,56.20
2018-07-09T22:53:08.751Z,56.60
2018-07-09T22:55:50.024Z,55.60
2018-07-09T22:58:22.666Z,52.00
2018-07-09T23:00:54.996Z,53.80
2018-07-09T23:03:27.698Z,55.80
2018-07-09T23:05:59.696Z,53.60
2018-07-09T23:08:32.247Z,52.40
2018-07-09T23:25:02.544Z,51.00
2018-07-09T23:27:31.950Z,52.60
2018-07-09T23:30:01.358Z,56.20
2018-07-09T23:32:30.771Z,50.00
2018-07-09T23:35:00.299Z,51.80
2018-07-09T23:37:29.818Z,52.60
2018-07-09T23:39:58.655Z,55.40
2018-07-09T23:42:28.027Z,55.80
2018-07-09T23:44:57.432Z,54.60
2018-07-09T23:47:26.765Z,53.00
2018-07-09T23:49:55.994Z,52.80
2018-07-09T23:52:25.142Z,54.20
2018-07-09T23:54:54.685Z,49.80
2018-07-09T23:57:36.531Z,56.60
